West Franklin, New Hampshire
Current Conditions -  °F | °C
As of 9:35 AM on Monday 20 Oct 2014 (Local Time) from KLCI Reporting Station
Clear Clear  
Wind Chill: 34°   Ceiling: Unl
Heat Index: 39°   Visibility: 10mi
Dew Point: 25°   Wind: 8mph
Humidity: 56%   Direction: 240°WSW
Pressure: 29.98"   Gusts: NA
Location:  43.4435°N, 71.6697°W
Report Text: KLCI 201335Z AUTO 24007KT 10SM CLR 04/M04 A2998 RMK AO1
Loading
Personal Weather Stations






























Interactive Weather Map
Tropical Storm Tracking
New forecast layout! Learn more

10-Day Weather Forecast

Advertisements
Track Severe Weather on mobile